createdAt,value
2018-10-07T00:00:28.565Z,8.00
2018-10-07T00:01:28.577Z,8.00
2018-10-07T00:02:28.598Z,8.00
2018-10-07T00:03:28.618Z,8.00
2018-10-07T00:04:28.638Z,8.00
2018-10-07T00:05:28.662Z,8.00
2018-10-07T00:06:28.680Z,8.00
2018-10-07T00:07:28.697Z,8.00
2018-10-07T00:08:28.718Z,8.00
2018-10-07T00:09:28.738Z,8.00
2018-10-07T00:10:28.759Z,8.00
2018-10-07T00:11:28.782Z,8.00
2018-10-07T00:12:28.801Z,8.00
2018-10-07T00:13:28.821Z,8.00
2018-10-07T00:14:28.846Z,8.00
2018-10-07T00:15:28.865Z,8.00
2018-10-07T00:16:28.881Z,8.00
2018-10-07T00:17:28.904Z,8.00
2018-10-07T00:18:28.925Z,8.00
2018-10-07T00:19:28.945Z,8.00
2018-10-07T00:20:28.965Z,8.00
2018-10-07T00:21:28.986Z,8.00
2018-10-07T00:22:29.004Z,8.00
2018-10-07T00:23:29.071Z,8.00
2018-10-07T00:24:29.047Z,8.00
2018-10-07T00:25:29.064Z,8.00
2018-10-07T00:26:29.087Z,8.00
2018-10-07T00:27:29.106Z,8.00
2018-10-07T00:28:29.125Z,4.00
2018-10-07T00:29:29.148Z,4.00
2018-10-07T00:30:29.167Z,4.00
2018-10-07T00:31:29.186Z,4.00
2018-10-07T00:32:29.208Z,4.00
2018-10-07T00:33:29.230Z,4.00
2018-10-07T00:34:29.248Z,4.00
2018-10-07T00:35:29.269Z,4.00
2018-10-07T00:36:29.287Z,4.00
2018-10-07T00:37:29.310Z,4.00
2018-10-07T00:38:29.330Z,4.00
2018-10-07T00:39:29.351Z,4.00
2018-10-07T00:40:29.368Z,4.00
2018-10-07T00:41:29.391Z,4.00
2018-10-07T00:42:29.410Z,4.00
2018-10-07T00:43:29.433Z,4.00
2018-10-07T00:44:29.449Z,4.00
2018-10-07T00:45:29.473Z,4.00
2018-10-07T00:46:29.494Z,4.00
2018-10-07T00:47:29.512Z,4.00
2018-10-07T00:48:29.531Z,4.00
2018-10-07T00:49:29.555Z,4.00
2018-10-07T00:50:29.573Z,4.00
2018-10-07T00:51:29.591Z,4.00
2018-10-07T00:52:29.615Z,4.00
2018-10-07T00:53:29.634Z,4.00
2018-10-07T00:54:29.656Z,4.00
2018-10-07T00:55:29.675Z,4.00
2018-10-07T00:56:29.697Z,4.00
2018-10-07T00:57:29.714Z,4.00
2018-10-07T00:58:29.740Z,4.00
2018-10-07T00:59:29.769Z,4.00
2018-10-07T01:00:29.777Z,4.00
2018-10-07T01:01:29.796Z,4.00
2018-10-07T01:02:29.815Z,4.00
2018-10-07T01:03:29.837Z,4.00
2018-10-07T01:04:29.859Z,4.00
2018-10-07T01:05:29.879Z,4.00
2018-10-07T01:06:29.898Z,4.00
2018-10-07T01:07:29.921Z,4.00
2018-10-07T01:08:29.940Z,4.00
2018-10-07T01:09:29.957Z,4.00
2018-10-07T01:10:29.978Z,4.00
2018-10-07T01:11:30.002Z,4.00
2018-10-07T01:12:30.020Z,4.00
2018-10-07T01:13:30.041Z,4.00
2018-10-07T01:14:30.061Z,4.00
2018-10-07T01:15:30.081Z,4.00
2018-10-07T01:16:30.098Z,4.00
2018-10-07T01:17:30.123Z,4.00
2018-10-07T01:18:30.140Z,4.00
2018-10-07T01:19:30.162Z,4.00
2018-10-07T01:20:30.182Z,4.00
2018-10-07T01:21:30.206Z,4.00
2018-10-07T01:22:30.224Z,4.00
2018-10-07T01:23:30.243Z,4.00
2018-10-07T01:24:30.265Z,4.00
2018-10-07T01:25:30.283Z,4.00
2018-10-07T01:26:30.305Z,4.00
2018-10-07T01:27:30.327Z,4.00
2018-10-07T01:28:30.342Z,4.00
2018-10-07T01:29:30.363Z,4.00
2018-10-07T01:30:30.391Z,4.00
2018-10-07T01:31:30.405Z,4.00
2018-10-07T01:32:30.425Z,4.00
2018-10-07T01:33:30.444Z,4.00
2018-10-07T01:34:30.466Z,4.00
2018-10-07T01:35:30.484Z,4.00
2018-10-07T01:36:30.505Z,4.00
2018-10-07T01:37:30.526Z,4.00
2018-10-07T01:38:30.548Z,4.00
2018-10-07T01:39:30.569Z,4.00
2018-10-07T01:40:30.587Z,4.00
2018-10-07T01:41:30.607Z,4.00
2018-10-07T01:42:30.631Z,4.00
2018-10-07T01:43:30.650Z,4.00
2018-10-07T01:44:30.673Z,4.00
2018-10-07T01:45:30.687Z,4.00
2018-10-07T01:46:30.712Z,4.00
2018-10-07T01:47:30.728Z,4.00
2018-10-07T01:48:30.748Z,4.00
2018-10-07T01:49:30.769Z,4.00
2018-10-07T01:50:30.794Z,4.00
2018-10-07T01:51:30.812Z,4.00
2018-10-07T01:52:30.831Z,4.00
2018-10-07T01:53:30.850Z,4.00
2018-10-07T01:54:30.873Z,4.00
2018-10-07T01:55:30.891Z,4.00
2018-10-07T01:56:30.911Z,4.00
2018-10-07T01:57:30.939Z,4.00
2018-10-07T01:58:30.952Z,4.00
2018-10-07T01:59:31.053Z,4.00
2018-10-07T02:00:30.996Z,4.00
2018-10-07T02:01:31.016Z,4.00
2018-10-07T02:02:31.039Z,4.00
2018-10-07T02:03:31.056Z,4.00
2018-10-07T02:04:31.074Z,4.00
2018-10-07T02:05:31.097Z,4.00
2018-10-07T02:06:31.115Z,4.00
2018-10-07T02:07:31.135Z,4.00
2018-10-07T02:08:31.160Z,4.00
2018-10-07T02:09:31.175Z,4.00
2018-10-07T02:10:31.197Z,4.00
2018-10-07T02:11:31.218Z,4.00
2018-10-07T02:12:31.237Z,4.00
2018-10-07T02:13:31.274Z,4.00
2018-10-07T02:14:31.278Z,4.00
2018-10-07T02:15:31.297Z,4.00
2018-10-07T02:16:31.317Z,4.00
2018-10-07T02:17:31.336Z,4.00
2018-10-07T02:18:31.358Z,4.00
2018-10-07T02:19:31.379Z,4.00
2018-10-07T02:20:31.396Z,4.00
2018-10-07T02:21:31.420Z,4.00
2018-10-07T02:22:31.436Z,4.00
2018-10-07T02:23:31.458Z,4.00
2018-10-07T02:24:31.478Z,4.00
2018-10-07T02:25:31.504Z,4.00
2018-10-07T02:26:31.516Z,4.00
2018-10-07T02:27:31.537Z,4.00
2018-10-07T02:28:31.558Z,4.00
2018-10-07T02:29:31.576Z,4.00
2018-10-07T02:30:31.597Z,4.00
2018-10-07T02:31:31.616Z,4.00
2018-10-07T02:32:31.639Z,4.00
2018-10-07T02:33:31.659Z,4.00
2018-10-07T02:34:31.690Z,4.00
2018-10-07T02:35:31.703Z,4.00
2018-10-07T02:36:31.719Z,4.00
2018-10-07T02:37:31.737Z,4.00
2018-10-07T02:38:31.760Z,4.00
2018-10-07T02:39:31.778Z,4.00
2018-10-07T02:40:31.797Z,4.00
2018-10-07T02:41:31.818Z,4.00
2018-10-07T02:42:31.838Z,4.00
2018-10-07T02:43:31.857Z,4.00
2018-10-07T02:44:31.873Z,4.00
2018-10-07T02:45:31.897Z,4.00
2018-10-07T02:46:31.915Z,4.00
2018-10-07T02:47:31.932Z,4.00
2018-10-07T02:48:31.954Z,4.00
2018-10-07T02:49:31.975Z,4.00
2018-10-07T02:50:31.996Z,4.00
2018-10-07T02:51:32.014Z,4.00
2018-10-07T02:52:32.033Z,4.00
2018-10-07T02:53:32.051Z,4.00
2018-10-07T02:54:32.071Z,4.00
2018-10-07T02:55:32.091Z,4.00
2018-10-07T02:56:32.117Z,4.00
2018-10-07T02:57:32.131Z,4.00
2018-10-07T02:58:32.148Z,4.00
2018-10-07T02:59:32.167Z,4.00
2018-10-07T03:00:32.188Z,4.00
2018-10-07T03:01:32.208Z,4.00
2018-10-07T03:02:32.224Z,4.00
2018-10-07T03:03:32.246Z,4.00
2018-10-07T03:04:32.265Z,4.00
2018-10-07T03:05:32.284Z,4.00
2018-10-07T03:06:32.305Z,4.00
2018-10-07T03:07:32.326Z,4.00
2018-10-07T03:08:32.341Z,4.00
2018-10-07T03:09:32.361Z,4.00
2018-10-07T03:10:32.383Z,4.00
2018-10-07T03:11:32.398Z,4.00
2018-10-07T03:12:32.418Z,4.00
2018-10-07T03:13:32.437Z,4.00
2018-10-07T03:14:32.459Z,4.00
2018-10-07T03:15:32.475Z,4.00
2018-10-07T03:16:32.495Z,4.00
2018-10-07T03:17:32.515Z,4.00
2018-10-07T03:18:32.535Z,4.00
2018-10-07T03:19:32.552Z,4.00
2018-10-07T03:20:32.580Z,4.00
2018-10-07T03:21:32.590Z,4.00
2018-10-07T03:22:32.614Z,4.00
2018-10-07T03:23:32.629Z,4.00
2018-10-07T03:24:32.647Z,4.00
2018-10-07T03:25:32.667Z,4.00
2018-10-07T03:26:32.686Z,4.00
2018-10-07T03:27:32.712Z,4.00
2018-10-07T03:28:32.725Z,4.00
2018-10-07T03:29:32.823Z,4.00
2018-10-07T03:30:32.764Z,4.00
2018-10-07T03:31:32.780Z,4.00
2018-10-07T03:32:32.799Z,4.00
2018-10-07T03:33:32.818Z,4.00
2018-10-07T03:34:32.840Z,4.00
2018-10-07T03:35:32.855Z,4.00
2018-10-07T03:36:32.876Z,4.00
2018-10-07T03:37:32.898Z,4.00
2018-10-07T03:38:32.916Z,4.00
2018-10-07T03:39:32.934Z,4.00
2018-10-07T03:40:32.952Z,4.00
2018-10-07T03:41:32.970Z,4.00
2018-10-07T03:42:32.990Z,4.00
2018-10-07T03:43:33.009Z,4.00
2018-10-07T03:44:33.075Z,4.00
2018-10-07T03:45:33.046Z,4.00
2018-10-07T03:46:33.065Z,4.00
2018-10-07T03:47:33.080Z,4.00
2018-10-07T03:48:33.101Z,4.00
2018-10-07T03:49:33.122Z,4.00
2018-10-07T03:50:33.137Z,4.00
2018-10-07T03:51:33.155Z,4.00
2018-10-07T03:52:33.174Z,4.00
2018-10-07T03:53:33.196Z,4.00
2018-10-07T03:54:33.212Z,4.00
2018-10-07T03:55:33.230Z,4.00
2018-10-07T03:56:33.250Z,4.00
2018-10-07T03:57:33.270Z,4.00
2018-10-07T03:58:33.289Z,4.00
2018-10-07T03:59:33.307Z,4.00
2018-10-07T04:00:33.323Z,4.00
2018-10-07T04:01:33.344Z,4.00
2018-10-07T04:02:33.361Z,4.00
2018-10-07T04:03:33.379Z,4.00
2018-10-07T04:04:33.400Z,4.00
2018-10-07T04:05:33.420Z,4.00
2018-10-07T04:06:33.437Z,4.00
2018-10-07T04:07:33.454Z,4.00
2018-10-07T04:08:33.472Z,4.00
2018-10-07T04:09:33.492Z,4.00
2018-10-07T04:10:33.509Z,4.00
2018-10-07T04:11:33.528Z,4.00
2018-10-07T04:12:33.545Z,4.00
2018-10-07T04:13:33.564Z,4.00
2018-10-07T04:14:33.583Z,4.00
2018-10-07T04:15:33.605Z,4.00
2018-10-07T04:16:33.626Z,4.00
2018-10-07T04:17:33.641Z,4.00
2018-10-07T04:18:33.661Z,4.00
2018-10-07T04:19:33.675Z,4.00
2018-10-07T04:20:33.700Z,4.00
2018-10-07T04:21:33.715Z,4.00
2018-10-07T04:22:33.731Z,4.00
2018-10-07T04:23:33.748Z,4.00
2018-10-07T04:24:33.767Z,4.00
2018-10-07T04:25:33.786Z,4.00
2018-10-07T04:26:33.805Z,4.00
2018-10-07T04:27:33.830Z,4.00
2018-10-07T04:28:33.845Z,4.00
2018-10-07T04:29:33.859Z,4.00
2018-10-07T04:30:33.879Z,4.00
2018-10-07T04:31:33.901Z,4.00
2018-10-07T04:32:33.914Z,4.00
2018-10-07T04:33:33.933Z,4.00
2018-10-07T04:34:33.952Z,4.00
2018-10-07T04:35:33.970Z,4.00
2018-10-07T04:36:33.989Z,4.00
2018-10-07T04:37:34.007Z,4.00
2018-10-07T04:38:34.028Z,4.00
2018-10-07T04:39:34.044Z,4.00
2018-10-07T04:40:34.065Z,4.00
2018-10-07T04:41:34.082Z,4.00
2018-10-07T04:42:34.099Z,4.00
2018-10-07T04:43:34.119Z,4.00
2018-10-07T04:44:34.135Z,4.00
2018-10-07T04:45:34.158Z,4.00
2018-10-07T04:46:34.173Z,4.00
2018-10-07T04:47:34.197Z,4.00
2018-10-07T04:48:34.209Z,4.00
2018-10-07T04:49:34.228Z,4.00
2018-10-07T04:50:34.246Z,4.00
2018-10-07T04:51:34.266Z,4.00
2018-10-07T04:52:34.285Z,4.00
2018-10-07T04:53:34.302Z,4.00
2018-10-07T04:54:34.320Z,4.00
2018-10-07T04:55:34.336Z,4.00
2018-10-07T04:56:34.355Z,4.00
2018-10-07T04:57:34.374Z,4.00
2018-10-07T04:58:34.395Z,4.00
2018-10-07T04:59:34.413Z,4.00
2018-10-07T05:00:34.428Z,4.00
2018-10-07T05:01:34.447Z,4.00
2018-10-07T05:02:34.471Z,4.00
2018-10-07T05:03:34.487Z,4.00
2018-10-07T05:04:34.505Z,4.00
2018-10-07T05:05:34.523Z,4.00
2018-10-07T05:06:34.556Z,4.00
2018-10-07T05:07:34.560Z,4.00
2018-10-07T05:08:34.577Z,4.00
2018-10-07T05:09:34.597Z,8.00
2018-10-07T05:10:34.612Z,8.00
2018-10-07T05:11:34.633Z,8.00
2018-10-07T05:12:34.692Z,8.00
2018-10-07T05:13:34.670Z,4.00
2018-10-07T05:14:34.685Z,4.00
2018-10-07T05:15:35.005Z,8.00
2018-10-07T05:16:34.724Z,8.00
2018-10-07T05:17:34.742Z,8.00
2018-10-07T05:18:34.759Z,8.00
2018-10-07T05:19:34.779Z,12.00
2018-10-07T05:20:34.995Z,12.00
2018-10-07T05:21:34.962Z,12.00
2018-10-07T05:22:34.984Z,12.00
2018-10-07T05:23:34.852Z,16.00
2018-10-07T05:24:34.867Z,12.00
2018-10-07T05:25:34.885Z,12.00
2018-10-07T05:26:34.905Z,16.00
2018-10-07T05:27:34.922Z,12.00
2018-10-07T05:28:34.942Z,12.00
2018-10-07T05:29:34.961Z,12.00
2018-10-07T05:30:34.978Z,16.00
2018-10-07T05:31:34.993Z,16.00
2018-10-07T05:32:35.012Z,20.00
2018-10-07T05:33:35.094Z,20.00
2018-10-07T05:34:35.049Z,20.00
2018-10-07T05:35:35.069Z,28.00
2018-10-07T05:36:35.094Z,32.00
2018-10-07T05:37:35.105Z,36.00
2018-10-07T05:38:35.122Z,36.00
2018-10-07T05:39:35.142Z,44.00
2018-10-07T05:40:35.163Z,48.00
2018-10-07T05:41:35.179Z,60.00
2018-10-07T05:42:35.193Z,72.00
2018-10-07T05:43:35.214Z,84.00
2018-10-07T05:44:35.379Z,96.00
2018-10-07T05:45:35.248Z,96.00
2018-10-07T05:46:35.269Z,116.00
2018-10-07T05:47:35.287Z,132.00
2018-10-07T05:48:35.303Z,144.00
2018-10-07T05:49:35.321Z,168.00
2018-10-07T05:50:35.343Z,188.00
2018-10-07T05:51:35.357Z,200.00
2018-10-07T05:52:35.378Z,220.00
2018-10-07T05:53:35.398Z,240.00
2018-10-07T05:54:35.413Z,244.00
2018-10-07T05:55:35.499Z,252.00
2018-10-07T05:56:35.449Z,256.00
2018-10-07T05:57:35.471Z,280.00
2018-10-07T05:58:35.485Z,304.00
2018-10-07T05:59:35.506Z,336.00
2018-10-07T06:00:35.521Z,356.00
2018-10-07T06:01:35.595Z,384.00
2018-10-07T06:02:35.562Z,404.00
2018-10-07T06:03:35.581Z,424.00
2018-10-07T06:04:35.598Z,448.00
2018-10-07T06:05:35.617Z,472.00
2018-10-07T06:06:35.635Z,496.00
2018-10-07T06:07:35.652Z,520.00
2018-10-07T06:08:35.668Z,548.00
2018-10-07T06:09:35.689Z,576.00
2018-10-07T06:10:35.722Z,612.00
2018-10-07T06:11:35.725Z,644.00
2018-10-07T06:12:35.740Z,680.00
2018-10-07T06:13:35.758Z,712.00
2018-10-07T06:14:35.777Z,756.00
2018-10-07T06:15:35.795Z,796.00
2018-10-07T06:16:35.812Z,832.00
2018-10-07T06:17:35.834Z,852.00
2018-10-07T06:18:35.848Z,876.00
2018-10-07T06:19:35.866Z,900.00
2018-10-07T06:20:35.884Z,924.00
2018-10-07T06:21:35.971Z,952.00
2018-10-07T06:22:35.924Z,980.00
2018-10-07T06:23:35.941Z,1004.00
2018-10-07T06:24:35.956Z,1052.00
2018-10-07T06:25:35.978Z,1060.00
2018-10-07T06:26:36.001Z,1072.00
2018-10-07T06:27:36.011Z,1080.00
2018-10-07T06:28:36.032Z,1112.00
2018-10-07T06:29:36.064Z,1168.00
2018-10-07T06:30:36.065Z,1188.00
2018-10-07T06:31:36.083Z,1196.00
2018-10-07T06:32:36.105Z,1180.00
2018-10-07T06:33:36.121Z,1192.00
2018-10-07T06:34:36.141Z,1200.00
2018-10-07T06:35:36.155Z,1220.00
2018-10-07T06:36:36.177Z,1216.00
2018-10-07T06:37:36.192Z,1184.00
2018-10-07T06:38:36.234Z,1140.00
2018-10-07T06:39:36.231Z,1092.00
2018-10-07T06:40:36.250Z,1068.00
2018-10-07T06:41:36.266Z,1064.00
2018-10-07T06:42:36.284Z,1060.00
2018-10-07T06:43:36.301Z,1044.00
2018-10-07T06:44:36.322Z,1024.00
2018-10-07T06:45:36.359Z,1000.00
2018-10-07T06:46:36.360Z,980.00
2018-10-07T06:47:36.374Z,952.00
2018-10-07T06:48:36.395Z,924.00
2018-10-07T06:49:36.414Z,908.00
2018-10-07T06:50:36.429Z,912.00
2018-10-07T06:51:36.449Z,932.00
2018-10-07T06:52:36.465Z,976.00
2018-10-07T06:53:36.488Z,1016.00
2018-10-07T06:54:36.503Z,1060.00
2018-10-07T06:55:36.520Z,1100.00
2018-10-07T06:56:36.541Z,1140.00
2018-10-07T06:57:36.557Z,1176.00
2018-10-07T06:58:36.576Z,1204.00
2018-10-07T06:59:36.661Z,1220.00
2018-10-07T07:00:36.612Z,1240.00
2018-10-07T07:01:36.631Z,1260.00
2018-10-07T07:02:36.652Z,1284.00
2018-10-07T07:03:36.666Z,1308.00
2018-10-07T07:04:36.687Z,1348.00
2018-10-07T07:05:36.704Z,1384.00
2018-10-07T07:06:36.880Z,1432.00
2018-10-07T07:07:36.740Z,1480.00
2018-10-07T07:08:37.011Z,1528.00
2018-10-07T07:09:36.776Z,1572.00
2018-10-07T07:10:36.797Z,1584.00
2018-10-07T07:11:36.814Z,1588.00
2018-10-07T07:12:36.830Z,1592.00
2018-10-07T07:13:36.849Z,1556.00
2018-10-07T07:14:36.870Z,1484.00
2018-10-07T07:15:36.884Z,1420.00
2018-10-07T07:16:36.909Z,1384.00
2018-10-07T07:17:36.923Z,1376.00
2018-10-07T07:18:36.943Z,1412.00
2018-10-07T07:19:37.019Z,1460.00
2018-10-07T07:20:36.982Z,1496.00
2018-10-07T07:21:36.995Z,1520.00
2018-10-07T07:22:37.014Z,1544.00
2018-10-07T07:23:37.036Z,1572.00
2018-10-07T07:24:37.050Z,1560.00
2018-10-07T07:25:37.075Z,1528.00
2018-10-07T07:26:37.087Z,1472.00
2018-10-07T07:27:37.105Z,1436.00
2018-10-07T07:28:37.123Z,1396.00
2018-10-07T07:29:37.144Z,1376.00
2018-10-07T07:30:37.160Z,1360.00
2018-10-07T07:31:37.180Z,1412.00
2018-10-07T07:32:37.196Z,1504.00
2018-10-07T07:33:37.568Z,1904.00
2018-10-07T07:34:37.233Z,1956.00
2018-10-07T07:35:37.253Z,1452.00
2018-10-07T07:36:37.270Z,1484.00
2018-10-07T07:37:37.287Z,2160.00
2018-10-07T07:38:37.306Z,1608.00
2018-10-07T07:39:37.326Z,1536.00
2018-10-07T07:40:37.343Z,1600.00
2018-10-07T07:41:37.365Z,2308.00
2018-10-07T07:42:37.380Z,1736.00
2018-10-07T07:43:37.396Z,2480.00
2018-10-07T07:44:37.414Z,2188.00
2018-10-07T07:45:37.435Z,2512.00
2018-10-07T07:46:37.454Z,2560.00
2018-10-07T07:47:37.472Z,2596.00
2018-10-07T07:48:37.488Z,2704.00
2018-10-07T07:49:37.507Z,2692.00
2018-10-07T07:50:37.524Z,2716.00
2018-10-07T07:51:37.544Z,2824.00
2018-10-07T07:52:37.560Z,2864.00
2018-10-07T07:53:37.580Z,2824.00
2018-10-07T07:54:37.597Z,2908.00
2018-10-07T07:55:37.615Z,2920.00
2018-10-07T07:56:37.636Z,2956.00
2018-10-07T07:57:37.651Z,3004.00
2018-10-07T07:58:37.670Z,3048.00
2018-10-07T07:59:37.690Z,3144.00
2018-10-07T08:00:37.709Z,3304.00
2018-10-07T08:01:37.728Z,3428.00
2018-10-07T08:02:37.743Z,3516.00
2018-10-07T08:03:37.764Z,3560.00
2018-10-07T08:04:37.780Z,3592.00
2018-10-07T08:05:37.797Z,3632.00
2018-10-07T08:06:37.816Z,3644.00
2018-10-07T08:07:37.834Z,3620.00
2018-10-07T08:08:37.859Z,3608.00
2018-10-07T08:09:37.872Z,3592.00
2018-10-07T08:10:37.890Z,3556.00
2018-10-07T08:11:37.911Z,3484.00
2018-10-07T08:12:37.928Z,3408.00
2018-10-07T08:13:37.948Z,3296.00
2018-10-07T08:14:37.967Z,3192.00
2018-10-07T08:15:37.987Z,3108.00
2018-10-07T08:16:38.004Z,3044.00
2018-10-07T08:17:38.093Z,2992.00
2018-10-07T08:18:38.042Z,2948.00
2018-10-07T08:19:38.058Z,2924.00
2018-10-07T08:20:38.073Z,2908.00
2018-10-07T08:21:38.094Z,2908.00
2018-10-07T08:22:38.115Z,2916.00
2018-10-07T08:23:38.146Z,2920.00
2018-10-07T08:24:38.147Z,2932.00
2018-10-07T08:25:38.169Z,2948.00
2018-10-07T08:26:38.185Z,2944.00
2018-10-07T08:27:38.205Z,2952.00
2018-10-07T08:28:38.222Z,2968.00
2018-10-07T08:29:38.328Z,2988.00
2018-10-07T08:30:38.268Z,3008.00
2018-10-07T08:31:38.279Z,3008.00
2018-10-07T08:32:38.296Z,3028.00
2018-10-07T08:33:38.320Z,3016.00
2018-10-07T08:34:38.335Z,3028.00
2018-10-07T08:35:38.352Z,3056.00
2018-10-07T08:36:38.373Z,3064.00
2018-10-07T08:37:38.391Z,3076.00
2018-10-07T08:38:38.407Z,3092.00
2018-10-07T08:39:38.426Z,3116.00
2018-10-07T08:40:38.447Z,3152.00
2018-10-07T08:41:38.469Z,3204.00
2018-10-07T08:42:38.481Z,3272.00
2018-10-07T08:43:38.506Z,3332.00
2018-10-07T08:44:38.524Z,3400.00
2018-10-07T08:45:38.540Z,3464.00
2018-10-07T08:46:38.556Z,3524.00
2018-10-07T08:47:38.575Z,3564.00
2018-10-07T08:48:38.596Z,3600.00
2018-10-07T08:49:38.639Z,3744.00
2018-10-07T08:50:38.631Z,3632.00
2018-10-07T08:51:38.652Z,3652.00
2018-10-07T08:52:38.671Z,3680.00
2018-10-07T08:53:38.690Z,3704.00
2018-10-07T08:54:38.709Z,3732.00
2018-10-07T08:55:38.730Z,3772.00
2018-10-07T08:56:38.743Z,3828.00
2018-10-07T08:57:38.762Z,3848.00
2018-10-07T08:58:38.782Z,3868.00
2018-10-07T08:59:38.799Z,3888.00
2018-10-07T09:00:38.821Z,3940.00
2018-10-07T09:01:38.840Z,4004.00
2018-10-07T09:02:38.858Z,3980.00
2018-10-07T09:03:38.875Z,4028.00
2018-10-07T09:04:38.895Z,3960.00
2018-10-07T09:05:38.917Z,3968.00
2018-10-07T09:06:38.936Z,3972.00
2018-10-07T09:07:38.961Z,3684.00
2018-10-07T09:08:38.984Z,3696.00
2018-10-07T09:09:38.992Z,3700.00
2018-10-07T09:10:39.011Z,3732.00
2018-10-07T09:11:39.032Z,3776.00
2018-10-07T09:12:39.049Z,3808.00
2018-10-07T09:13:39.066Z,3840.00
2018-10-07T09:14:39.147Z,3852.00
2018-10-07T09:15:39.104Z,3860.00
2018-10-07T09:16:39.126Z,3860.00
2018-10-07T09:17:39.446Z,3876.00
2018-10-07T09:18:39.162Z,3868.00
2018-10-07T09:19:39.181Z,3868.00
2018-10-07T09:20:39.203Z,3880.00
2018-10-07T09:21:39.220Z,3916.00
2018-10-07T09:22:39.242Z,3932.00
2018-10-07T09:23:39.262Z,3932.00
2018-10-07T09:24:39.277Z,3960.00
2018-10-07T09:25:39.300Z,3964.00
2018-10-07T09:26:39.365Z,3956.00
2018-10-07T09:27:39.492Z,3968.00
2018-10-07T09:28:39.354Z,3956.00
2018-10-07T09:29:39.378Z,3976.00
2018-10-07T09:30:39.396Z,3968.00
2018-10-07T09:31:39.415Z,4028.00
2018-10-07T09:32:39.545Z,3992.00
2018-10-07T09:33:39.454Z,4000.00
2018-10-07T09:34:39.471Z,4012.00
2018-10-07T09:35:39.493Z,4008.00
2018-10-07T09:36:39.535Z,3980.00
2018-10-07T09:37:39.532Z,4028.00
2018-10-07T09:38:39.552Z,4044.00
2018-10-07T09:39:39.604Z,4048.00
2018-10-07T09:40:39.589Z,4048.00
2018-10-07T09:41:39.610Z,4016.00
2018-10-07T09:42:39.627Z,4068.00
2018-10-07T09:43:39.646Z,4036.00
2018-10-07T09:44:39.665Z,4044.00
2018-10-07T09:45:39.687Z,4056.00
2018-10-07T09:46:39.711Z,4056.00
2018-10-07T09:47:39.724Z,4076.00
2018-10-07T09:48:39.745Z,4064.00
2018-10-07T09:49:39.765Z,4048.00
2018-10-07T09:50:39.784Z,4032.00
2018-10-07T09:51:39.802Z,4052.00
2018-10-07T09:52:39.823Z,4036.00
2018-10-07T09:53:39.839Z,4044.00
2018-10-07T09:54:39.863Z,4052.00
2018-10-07T09:55:39.882Z,4072.00
2018-10-07T09:56:39.898Z,4176.00
2018-10-07T09:57:39.917Z,4060.00
2018-10-07T09:58:39.940Z,4072.00
2018-10-07T09:59:39.959Z,4092.00
2018-10-07T10:00:39.980Z,4072.00
2018-10-07T10:01:39.996Z,4064.00
2018-10-07T10:02:40.016Z,4080.00
2018-10-07T10:03:40.038Z,4080.00
2018-10-07T10:04:40.089Z,4092.00
2018-10-07T10:05:40.077Z,4072.00
2018-10-07T10:06:40.097Z,4064.00
2018-10-07T10:07:40.115Z,4100.00
2018-10-07T10:08:40.135Z,4108.00
2018-10-07T10:09:40.157Z,4116.00
2018-10-07T10:10:40.174Z,4124.00
2018-10-07T10:11:40.196Z,4140.00
2018-10-07T10:12:40.212Z,4104.00
2018-10-07T10:13:40.232Z,4120.00
2018-10-07T10:14:40.252Z,4112.00
2018-10-07T10:15:40.270Z,4144.00
2018-10-07T10:16:40.288Z,4072.00
2018-10-07T10:17:40.381Z,4052.00
2018-10-07T10:18:40.329Z,4060.00
2018-10-07T10:19:40.384Z,4104.00
2018-10-07T10:20:40.368Z,4072.00
2018-10-07T10:21:40.391Z,4160.00
2018-10-07T10:22:40.410Z,4220.00
2018-10-07T10:23:40.429Z,4216.00
2018-10-07T10:24:40.450Z,4352.00
2018-10-07T10:25:40.465Z,4268.00
2018-10-07T10:26:40.486Z,3156.00
2018-10-07T10:27:40.508Z,3732.00
2018-10-07T10:28:40.524Z,4312.00
2018-10-07T10:29:40.544Z,2112.00
2018-10-07T10:30:40.565Z,1812.00
2018-10-07T10:31:40.595Z,4120.00
2018-10-07T10:32:40.607Z,4092.00
2018-10-07T10:33:40.627Z,3972.00
2018-10-07T10:34:40.644Z,1692.00
2018-10-07T10:35:40.666Z,3232.00
2018-10-07T10:36:40.729Z,3456.00
2018-10-07T10:37:40.702Z,4184.00
2018-10-07T10:38:40.727Z,1744.00
2018-10-07T10:39:40.784Z,4040.00
2018-10-07T10:40:40.765Z,3216.00
2018-10-07T10:41:40.782Z,4248.00
2018-10-07T10:42:40.803Z,4320.00
2018-10-07T10:43:40.823Z,4432.00
2018-10-07T10:44:40.843Z,4400.00
2018-10-07T10:45:40.862Z,4224.00
2018-10-07T10:46:40.882Z,4172.00
2018-10-07T10:47:40.902Z,4068.00
2018-10-07T10:48:40.921Z,4044.00
2018-10-07T10:49:40.940Z,4068.00
2018-10-07T10:50:40.963Z,4104.00
2018-10-07T10:51:40.978Z,4148.00
2018-10-07T10:52:41.004Z,4220.00
2018-10-07T10:53:41.022Z,4268.00
2018-10-07T10:54:41.041Z,4340.00
2018-10-07T10:55:41.057Z,4188.00
2018-10-07T10:56:41.081Z,4028.00
2018-10-07T10:57:41.101Z,3948.00
2018-10-07T10:58:41.118Z,3984.00
2018-10-07T10:59:41.141Z,4004.00
2018-10-07T11:00:41.157Z,4056.00
2018-10-07T11:01:41.180Z,4028.00
2018-10-07T11:02:41.200Z,4032.00
2018-10-07T11:03:41.219Z,3968.00
2018-10-07T11:04:41.301Z,3940.00
2018-10-07T11:05:41.258Z,3864.00
2018-10-07T11:06:41.279Z,3800.00
2018-10-07T11:07:41.299Z,3816.00
2018-10-07T11:08:41.316Z,3812.00
2018-10-07T11:09:41.339Z,3860.00
2018-10-07T11:10:41.357Z,3792.00
2018-10-07T11:11:41.380Z,3832.00
2018-10-07T11:12:41.400Z,3816.00
2018-10-07T11:13:41.442Z,3764.00
2018-10-07T11:14:41.440Z,3736.00
2018-10-07T11:15:41.477Z,3684.00
2018-10-07T11:16:41.477Z,3708.00
2018-10-07T11:17:41.496Z,3696.00
2018-10-07T11:18:41.520Z,3692.00
2018-10-07T11:19:41.535Z,3684.00
2018-10-07T11:20:41.557Z,3656.00
2018-10-07T11:21:41.576Z,3680.00
2018-10-07T11:22:41.599Z,3668.00
2018-10-07T11:23:41.620Z,3652.00
2018-10-07T11:24:41.640Z,3624.00
2018-10-07T11:25:41.658Z,3632.00
2018-10-07T11:26:41.679Z,3616.00
2018-10-07T11:27:41.700Z,3620.00
2018-10-07T11:28:41.717Z,3624.00
2018-10-07T11:29:41.739Z,3616.00
2018-10-07T11:30:41.758Z,3616.00
2018-10-07T11:31:41.775Z,3620.00
2018-10-07T11:32:41.795Z,3612.00
2018-10-07T11:33:41.818Z,3600.00
2018-10-07T11:34:41.851Z,3592.00
2018-10-07T11:35:41.857Z,3604.00
2018-10-07T11:36:41.878Z,3592.00
2018-10-07T11:37:41.896Z,3612.00
2018-10-07T11:38:41.919Z,3596.00
2018-10-07T11:39:41.938Z,3600.00
2018-10-07T11:40:42.012Z,3584.00
2018-10-07T11:41:41.982Z,3628.00
2018-10-07T11:42:41.997Z,3544.00
2018-10-07T11:43:42.016Z,3564.00
2018-10-07T11:44:42.038Z,3556.00
2018-10-07T11:45:42.060Z,3540.00
2018-10-07T11:46:42.080Z,3536.00
2018-10-07T11:47:42.097Z,3512.00
2018-10-07T11:48:42.122Z,3544.00
2018-10-07T11:49:42.141Z,3540.00
2018-10-07T11:50:42.158Z,3516.00
2018-10-07T11:51:42.179Z,3504.00
2018-10-07T11:52:42.244Z,3496.00
2018-10-07T11:53:42.222Z,3488.00
2018-10-07T11:54:42.241Z,3480.00
2018-10-07T11:55:42.259Z,3480.00
2018-10-07T11:56:42.283Z,3472.00
2018-10-07T11:57:42.302Z,3452.00
2018-10-07T11:58:42.321Z,3464.00
2018-10-07T11:59:42.342Z,3456.00
2018-10-07T12:00:42.362Z,3444.00
2018-10-07T12:01:42.384Z,3448.00
2018-10-07T12:02:42.430Z,3444.00
2018-10-07T12:03:42.424Z,3444.00
2018-10-07T12:04:42.446Z,3424.00
2018-10-07T12:05:42.463Z,3400.00
2018-10-07T12:06:42.482Z,3420.00
2018-10-07T12:07:42.502Z,3420.00
2018-10-07T12:08:42.525Z,3404.00
2018-10-07T12:09:42.543Z,3400.00
2018-10-07T12:10:42.567Z,3392.00
2018-10-07T12:11:42.583Z,3384.00
2018-10-07T12:12:42.607Z,3384.00
2018-10-07T12:13:42.624Z,3396.00
2018-10-07T12:14:42.650Z,3380.00
2018-10-07T12:15:42.666Z,3372.00
2018-10-07T12:16:42.685Z,3376.00
2018-10-07T12:17:42.708Z,3368.00
2018-10-07T12:18:42.726Z,3348.00
2018-10-07T12:19:42.748Z,3328.00
2018-10-07T12:20:42.770Z,3328.00
2018-10-07T12:21:42.785Z,3292.00
2018-10-07T12:22:42.811Z,3260.00
2018-10-07T12:23:42.827Z,3224.00
2018-10-07T12:24:42.846Z,3296.00
2018-10-07T12:25:42.869Z,3320.00
2018-10-07T12:26:42.888Z,3304.00
2018-10-07T12:27:42.910Z,3300.00
2018-10-07T12:28:42.928Z,3304.00
2018-10-07T12:29:42.948Z,3308.00
2018-10-07T12:30:42.970Z,3296.00
2018-10-07T12:31:42.991Z,3280.00
2018-10-07T12:32:43.008Z,3240.00
2018-10-07T12:33:43.028Z,3260.00
2018-10-07T12:34:43.051Z,3268.00
2018-10-07T12:35:43.071Z,3288.00
2018-10-07T12:36:43.114Z,3300.00
2018-10-07T12:37:43.112Z,3320.00